createdAt,value
2019-03-08T00:00:37.899Z,75.40
2019-03-08T00:03:06.504Z,75.00
2019-03-08T00:05:35.060Z,75.60
2019-03-08T00:08:03.647Z,76.00
2019-03-08T00:10:32.191Z,77.40
2019-03-08T00:13:00.878Z,77.20
2019-03-08T00:15:29.496Z,77.60
2019-03-08T00:17:58.083Z,77.60
2019-03-08T00:20:26.637Z,78.20
2019-03-08T00:22:55.628Z,78.90
2019-03-08T00:25:24.188Z,79.40
2019-03-08T00:27:52.859Z,80.10
2019-03-08T00:30:21.483Z,80.80
2019-03-08T00:32:50.058Z,81.40
2019-03-08T00:35:18.608Z,82.50
2019-03-08T00:37:47.196Z,82.80
2019-03-08T00:40:15.888Z,83.00
2019-03-08T00:42:44.468Z,82.80
2019-03-08T00:45:15.233Z,83.50
2019-03-08T00:47:43.966Z,83.40
2019-03-08T00:50:12.754Z,84.20
2019-03-08T00:52:41.329Z,84.90
2019-03-08T00:55:11.420Z,85.00
2019-03-08T00:57:39.995Z,85.30
2019-03-08T01:00:19.082Z,85.80
2019-03-08T01:02:47.817Z,86.00
2019-03-08T01:05:17.415Z,86.70
2019-03-08T01:07:46.341Z,86.90
2019-03-08T01:10:23.228Z,87.10
2019-03-08T01:12:51.960Z,87.00
2019-03-08T01:15:20.580Z,87.40
2019-03-08T01:17:49.221Z,87.70
2019-03-08T01:20:18.900Z,88.20
2019-03-08T01:22:47.724Z,88.40
2019-03-08T01:25:16.755Z,89.10
2019-03-08T01:27:59.008Z,89.20
2019-03-08T01:30:27.616Z,89.40
2019-03-08T01:32:56.256Z,90.00
2019-03-08T01:35:24.811Z,90.40
2019-03-08T01:37:53.664Z,90.30
2019-03-08T01:40:22.229Z,90.60
2019-03-08T01:42:50.787Z,90.90
2019-03-08T01:45:19.404Z,91.60
2019-03-08T01:47:48.001Z,91.60
2019-03-08T01:50:16.688Z,91.60
2019-03-08T01:52:45.600Z,91.70
2019-03-08T01:55:14.320Z,92.00
2019-03-08T01:57:42.977Z,92.10
2019-03-08T02:00:14.920Z,92.10
2019-03-08T02:02:43.640Z,92.20
2019-03-08T02:05:12.344Z,92.40
2019-03-08T02:07:40.992Z,92.60
2019-03-08T02:10:12.298Z,92.80
2019-03-08T02:12:42.101Z,93.00
2019-03-08T02:15:15.664Z,92.90
2019-03-08T02:17:44.441Z,92.90
2019-03-08T02:20:18.877Z,92.80
2019-03-08T02:22:47.661Z,93.00
2019-03-08T02:25:16.460Z,93.10
2019-03-08T02:27:45.313Z,93.30
2019-03-08T02:30:18.653Z,93.30
2019-03-08T02:32:47.219Z,93.40
2019-03-08T02:35:18.710Z,93.60
2019-03-08T02:37:47.344Z,94.00
2019-03-08T02:40:31.332Z,93.80
2019-03-08T02:43:00.643Z,94.00
2019-03-08T02:45:29.355Z,94.10
2019-03-08T02:47:57.978Z,94.00
2019-03-08T02:50:26.617Z,94.00
2019-03-08T02:52:55.178Z,93.90
2019-03-08T02:55:24.161Z,93.90
2019-03-08T02:57:53.037Z,93.80
2019-03-08T03:00:21.850Z,93.70
2019-03-08T03:02:50.493Z,93.80
2019-03-08T03:05:19.090Z,94.10
2019-03-08T03:07:47.729Z,94.00
2019-03-08T03:10:16.376Z,93.90
2019-03-08T03:12:44.937Z,94.00
2019-03-08T03:15:15.211Z,94.00
2019-03-08T03:17:43.768Z,94.10
2019-03-08T03:20:16.436Z,94.10
2019-03-08T03:22:45.052Z,94.10
2019-03-08T03:25:15.065Z,94.20
2019-03-08T03:27:43.686Z,94.40
2019-03-08T03:30:21.332Z,94.50
2019-03-08T03:32:49.897Z,94.50
2019-03-08T03:35:18.543Z,94.50
2019-03-08T03:37:47.491Z,95.00
2019-03-08T03:40:18.428Z,95.40
2019-03-08T03:42:47.061Z,96.10
2019-03-08T03:45:18.086Z,96.50
2019-03-08T03:47:46.637Z,96.50
2019-03-08T03:50:15.745Z,96.80
2019-03-08T03:52:44.645Z,97.30
2019-03-08T03:55:17.536Z,97.70
2019-03-08T03:57:46.262Z,97.70
2019-03-08T04:00:20.458Z,98.10
2019-03-08T04:02:49.012Z,98.20
2019-03-08T04:05:17.867Z,98.10
2019-03-08T04:07:46.783Z,98.20
2019-03-08T04:10:16.593Z,98.30
2019-03-08T04:12:45.484Z,98.20
2019-03-08T04:15:19.322Z,98.20
2019-03-08T04:17:48.244Z,98.00
2019-03-08T04:20:18.828Z,97.50
2019-03-08T04:22:47.375Z,97.30
2019-03-08T04:25:16.301Z,97.30
2019-03-08T04:27:45.141Z,97.10
2019-03-08T04:30:16.003Z,96.90
2019-03-08T04:32:44.702Z,96.80
2019-03-08T04:35:13.276Z,96.80
2019-03-08T04:37:41.837Z,96.70
2019-03-08T04:40:13.261Z,96.80
2019-03-08T04:42:42.092Z,96.60
2019-03-08T04:45:12.615Z,96.50
2019-03-08T04:47:41.340Z,96.70
2019-03-08T04:50:13.870Z,96.10
2019-03-08T04:52:42.519Z,96.00
2019-03-08T04:55:23.628Z,95.70
2019-03-08T04:57:52.176Z,95.60
2019-03-08T05:00:21.388Z,95.70
2019-03-08T05:02:49.948Z,95.10
2019-03-08T05:05:18.797Z,94.80
2019-03-08T05:07:47.352Z,94.90
2019-03-08T05:10:17.363Z,94.90
2019-03-08T05:12:45.912Z,94.90
2019-03-08T05:15:15.227Z,94.80
2019-03-08T05:17:43.779Z,94.80
2019-03-08T05:20:12.491Z,94.90
2019-03-08T05:22:41.041Z,94.70
2019-03-08T05:25:13.674Z,94.50
2019-03-08T05:27:42.294Z,94.40
2019-03-08T05:30:17.721Z,94.40
2019-03-08T05:32:46.696Z,94.50
2019-03-08T05:35:15.428Z,94.60
2019-03-08T05:37:44.074Z,94.60
2019-03-08T05:40:15.268Z,95.50
2019-03-08T05:42:44.211Z,95.80
2019-03-08T05:45:14.223Z,96.30
2019-03-08T05:47:42.896Z,96.60
2019-03-08T05:50:12.288Z,97.30
2019-03-08T05:52:41.183Z,97.70
2019-03-08T05:55:10.933Z,98.00
2019-03-08T05:57:39.530Z,98.40
2019-03-08T06:00:14.900Z,98.60
2019-03-08T06:02:43.474Z,99.00
2019-03-08T06:05:12.191Z,99.10
2019-03-08T06:07:40.778Z,99.20
2019-03-08T06:10:29.580Z,99.10
2019-03-08T06:12:58.800Z,99.40
2019-03-08T06:15:27.893Z,99.20
2019-03-08T06:17:57.483Z,99.60
2019-03-08T06:20:26.244Z,99.30
2019-03-08T06:22:55.457Z,99.70
2019-03-08T06:25:24.016Z,99.90
2019-03-08T06:27:52.592Z,99.90
2019-03-08T06:30:21.220Z,99.90
2019-03-08T06:32:50.096Z,99.90
2019-03-08T06:35:18.960Z,99.90
2019-03-08T06:37:47.603Z,99.90
2019-03-08T06:40:16.228Z,99.90
2019-03-08T06:42:44.795Z,99.90
2019-03-08T06:45:17.279Z,99.90
2019-03-08T06:47:46.295Z,99.90
2019-03-08T06:50:16.392Z,99.90
2019-03-08T06:52:45.194Z,99.90
2019-03-08T06:55:15.972Z,99.90
2019-03-08T06:57:44.728Z,99.90
2019-03-08T07:00:40.712Z,99.90
2019-03-08T07:03:09.996Z,99.90
2019-03-08T07:05:38.548Z,99.90
2019-03-08T07:08:07.206Z,99.90
2019-03-08T07:10:35.760Z,99.90
2019-03-08T07:13:04.412Z,99.90
2019-03-08T07:15:33.002Z,99.90
2019-03-08T07:18:01.675Z,99.90
2019-03-08T07:20:31.864Z,99.70
2019-03-08T07:23:11.176Z,98.30
2019-03-08T07:25:51.475Z,96.80
2019-03-08T07:28:31.820Z,95.50
2019-03-08T07:31:04.903Z,94.70
2019-03-08T07:33:53.193Z,94.90
2019-03-08T07:36:19.539Z,94.80
2019-03-08T07:38:58.837Z,94.30
2019-03-08T07:41:35.200Z,93.40
2019-03-08T07:44:08.224Z,92.10
2019-03-08T07:46:38.456Z,90.30
2019-03-08T07:49:11.396Z,82.50
2019-03-08T07:51:53.580Z,72.90
2019-03-08T07:54:26.524Z,62.30
2019-03-08T07:56:59.196Z,53.00
2019-03-08T07:59:32.160Z,49.20
2019-03-08T08:02:02.782Z,46.70
2019-03-08T08:04:33.024Z,41.60
2019-03-08T08:07:09.058Z,39.00
2019-03-08T08:09:42.007Z,37.60
2019-03-08T08:12:21.479Z,37.10
2019-03-08T08:15:00.685Z,37.00
2019-03-08T08:17:33.844Z,37.70
2019-03-08T08:20:15.936Z,35.40
2019-03-08T08:22:42.116Z,35.20
2019-03-08T08:25:36.588Z,37.00
2019-03-08T08:28:01.027Z,40.70
2019-03-08T08:30:31.592Z,43.70
2019-03-08T08:33:11.069Z,47.10
2019-03-08T08:35:58.052Z,51.20
2019-03-08T08:38:33.955Z,54.80
2019-03-08T08:41:07.439Z,56.60
2019-03-08T08:43:43.353Z,59.00
2019-03-08T08:46:29.884Z,60.80
2019-03-08T08:49:00.397Z,63.40
2019-03-08T08:51:36.407Z,65.50
2019-03-08T08:54:21.680Z,70.10
2019-03-08T08:56:51.872Z,71.40
2019-03-08T08:59:33.883Z,71.80
2019-03-08T09:02:13.081Z,73.90
2019-03-08T09:04:46.027Z,75.70
2019-03-08T09:07:32.750Z,76.00
2019-03-08T09:10:19.297Z,77.70
2019-03-08T09:12:55.724Z,78.60
2019-03-08T09:15:42.687Z,77.80
2019-03-08T09:18:18.896Z,78.10
2019-03-08T09:21:01.499Z,77.30
2019-03-08T09:23:31.663Z,78.20
2019-03-08T09:26:17.083Z,79.30
2019-03-08T09:28:53.149Z,78.40
2019-03-08T09:31:26.035Z,79.60
2019-03-08T09:33:56.224Z,79.40
2019-03-08T09:36:29.112Z,79.90
2019-03-08T09:39:02.247Z,80.50
2019-03-08T09:41:38.560Z,79.70
2019-03-08T09:44:08.752Z,78.30
2019-03-08T09:46:38.968Z,74.90
2019-03-08T09:49:21.165Z,62.70
2019-03-08T09:51:54.191Z,53.30
2019-03-08T09:54:36.294Z,51.30
2019-03-08T09:57:09.941Z,51.70
2019-03-08T09:59:58.075Z,54.10
2019-03-08T10:02:44.394Z,56.50
2019-03-08T10:05:29.669Z,56.20
2019-03-08T10:08:11.934Z,57.50
2019-03-08T10:10:58.090Z,59.90
2019-03-08T10:13:34.608Z,60.40
2019-03-08T10:16:04.809Z,56.00
2019-03-08T10:18:35.043Z,47.30
2019-03-08T10:21:21.650Z,40.00
2019-03-08T10:24:04.436Z,37.20
2019-03-08T10:26:40.696Z,39.00
2019-03-08T10:29:10.904Z,43.00
2019-03-08T10:31:59.060Z,46.40
2019-03-08T10:34:38.077Z,47.10
2019-03-08T10:37:14.644Z,46.40
2019-03-08T10:40:00.851Z,43.50
2019-03-08T10:42:39.871Z,43.90
2019-03-08T10:45:14.715Z,41.50
2019-03-08T10:47:44.946Z,40.80
2019-03-08T10:50:27.344Z,43.20
2019-03-08T10:53:14.450Z,43.00
2019-03-08T10:55:47.367Z,39.90
2019-03-08T10:58:26.679Z,40.40
2019-03-08T11:00:57.045Z,41.70
2019-03-08T11:03:32.859Z,44.00
2019-03-08T11:06:05.842Z,46.30
2019-03-08T11:08:38.746Z,48.40
2019-03-08T11:11:29.564Z,46.40
2019-03-08T11:13:59.771Z,42.20
2019-03-08T11:16:32.601Z,42.20
2019-03-08T11:19:08.715Z,44.30
2019-03-08T11:21:37.400Z,43.30
2019-03-08T11:24:13.273Z,41.70
2019-03-08T11:26:43.773Z,43.40
2019-03-08T11:29:22.737Z,45.30
2019-03-08T11:31:53.026Z,46.80
2019-03-08T11:34:23.228Z,48.00
2019-03-08T11:36:59.498Z,53.00
2019-03-08T11:39:29.697Z,50.30
2019-03-08T11:42:02.662Z,51.50
2019-03-08T11:44:48.100Z,53.30
2019-03-08T11:47:21.107Z,53.90
2019-03-08T11:50:07.516Z,55.30
2019-03-08T11:52:37.736Z,55.60
2019-03-08T11:55:16.039Z,57.30
2019-03-08T11:58:02.786Z,58.30
2019-03-08T12:00:44.943Z,59.30
2019-03-08T12:03:32.060Z,60.00
2019-03-08T12:06:02.954Z,61.60
2019-03-08T12:08:51.004Z,60.90
2019-03-08T12:11:33.497Z,61.60
2019-03-08T12:14:21.772Z,62.00
2019-03-08T12:17:01.403Z,61.40
2019-03-08T12:19:47.073Z,60.30
2019-03-08T12:22:20.515Z,60.70
2019-03-08T12:25:01.388Z,58.50
2019-03-08T12:27:47.969Z,59.20
2019-03-08T12:30:36.358Z,59.60
2019-03-08T12:33:15.950Z,58.90
2019-03-08T12:35:46.171Z,58.70
2019-03-08T12:38:19.496Z,58.10
2019-03-08T12:40:55.943Z,57.10
2019-03-08T12:43:29.149Z,56.10
2019-03-08T12:46:15.793Z,54.90
2019-03-08T12:48:46.244Z,54.50
2019-03-08T12:51:16.456Z,53.80
2019-03-08T12:53:58.680Z,54.30
2019-03-08T12:56:28.899Z,54.20
2019-03-08T12:59:11.509Z,54.50
2019-03-08T13:01:44.452Z,55.30
2019-03-08T13:04:14.652Z,54.70
2019-03-08T13:06:50.873Z,55.50
2019-03-08T13:09:33.180Z,55.70
2019-03-08T13:12:01.740Z,56.50
2019-03-08T13:14:30.293Z,57.20
2019-03-08T13:16:58.876Z,58.20
2019-03-08T13:19:27.520Z,58.00
2019-03-08T13:21:56.299Z,57.80
2019-03-08T13:24:24.851Z,56.60
2019-03-08T13:26:53.439Z,56.00
2019-03-08T13:29:21.997Z,56.00
2019-03-08T13:31:50.740Z,54.00
2019-03-08T13:34:19.300Z,53.50
2019-03-08T13:36:48.082Z,53.50
2019-03-08T13:39:16.636Z,54.50
2019-03-08T13:41:45.479Z,54.10
2019-03-08T13:44:14.124Z,54.50
2019-03-08T13:46:42.772Z,55.10
2019-03-08T13:49:11.323Z,55.70
2019-03-08T13:51:40.144Z,54.30
2019-03-08T13:54:08.708Z,53.80
2019-03-08T13:56:37.303Z,53.80
2019-03-08T13:59:05.852Z,54.30
2019-03-08T14:01:34.442Z,54.40
2019-03-08T14:04:03.000Z,53.70
2019-03-08T14:06:31.796Z,53.50
2019-03-08T14:09:00.699Z,53.10
2019-03-08T14:11:29.274Z,53.10
2019-03-08T14:13:57.841Z,57.00
2019-03-08T14:16:26.425Z,56.90
2019-03-08T14:18:54.997Z,56.70
2019-03-08T14:21:23.592Z,53.60
2019-03-08T14:23:52.226Z,53.00
2019-03-08T14:26:21.093Z,53.80
2019-03-08T14:28:49.658Z,54.10
2019-03-08T14:31:28.764Z,51.90
2019-03-08T14:33:58.280Z,49.70
2019-03-08T14:36:26.950Z,49.70
2019-03-08T14:38:55.510Z,50.20
2019-03-08T14:41:25.736Z,50.80
2019-03-08T14:43:55.933Z,50.40
2019-03-08T14:46:32.538Z,51.00
2019-03-08T14:49:01.072Z,51.10
2019-03-08T14:51:29.639Z,51.80
2019-03-08T14:53:58.350Z,52.00
2019-03-08T14:56:26.906Z,52.50
2019-03-08T14:58:55.775Z,53.20
2019-03-08T15:01:24.459Z,53.30
2019-03-08T15:03:56.611Z,53.50
2019-03-08T15:06:23.265Z,54.50
2019-03-08T15:08:55.092Z,54.00
2019-03-08T15:11:23.607Z,53.50
2019-03-08T15:13:52.403Z,52.30
2019-03-08T15:16:20.963Z,51.70
2019-03-08T15:18:49.545Z,51.40
2019-03-08T15:21:18.122Z,51.60
2019-03-08T15:23:46.713Z,52.30
2019-03-08T15:26:15.271Z,51.80
2019-03-08T15:28:43.870Z,51.50
2019-03-08T15:31:12.498Z,51.30
2019-03-08T15:33:41.142Z,51.00
2019-03-08T15:36:09.788Z,51.00
2019-03-08T15:38:38.369Z,50.90
2019-03-08T15:41:07.005Z,50.00
2019-03-08T15:43:35.585Z,50.50
2019-03-08T15:46:04.400Z,50.60
2019-03-08T15:48:33.108Z,50.10
2019-03-08T15:51:01.820Z,50.20
2019-03-08T15:53:30.393Z,50.60
2019-03-08T15:55:58.991Z,50.70
2019-03-08T15:58:27.679Z,50.80
2019-03-08T16:00:56.392Z,51.50
2019-03-08T16:03:25.031Z,51.20
2019-03-08T16:05:53.713Z,51.50
2019-03-08T16:08:22.307Z,51.40
2019-03-08T16:10:50.997Z,51.90
2019-03-08T16:13:19.606Z,51.30
2019-03-08T16:15:48.334Z,51.20
2019-03-08T16:18:17.925Z,50.20
2019-03-08T16:20:46.836Z,50.70
2019-03-08T16:23:15.408Z,50.70
2019-03-08T16:25:47.553Z,51.40
2019-03-08T16:28:14.182Z,51.70
2019-03-08T16:31:00.795Z,52.20
2019-03-08T16:33:39.370Z,52.20
2019-03-08T16:36:09.896Z,52.30
2019-03-08T16:38:54.924Z,52.50
2019-03-08T16:41:30.961Z,52.50
2019-03-08T16:44:17.260Z,52.80
2019-03-08T16:46:53.228Z,53.40
2019-03-08T16:49:38.961Z,53.40
2019-03-08T16:52:24.605Z,54.60
2019-03-08T16:54:57.686Z,53.90
2019-03-08T16:57:33.621Z,54.00
2019-03-08T17:00:03.935Z,54.90
2019-03-08T17:02:43.604Z,54.40
2019-03-08T17:05:16.968Z,54.40
2019-03-08T17:07:53.423Z,54.50
2019-03-08T17:10:29.567Z,54.20
2019-03-08T17:12:59.884Z,55.20
2019-03-08T17:15:32.552Z,55.70
2019-03-08T17:18:14.430Z,55.10
2019-03-08T17:20:47.624Z,55.10
2019-03-08T17:23:17.836Z,54.80
2019-03-08T17:25:48.054Z,55.10
2019-03-08T17:28:21.283Z,55.30
2019-03-08T17:31:10.171Z,55.60
2019-03-08T17:33:42.900Z,56.00
2019-03-08T17:36:28.037Z,56.70
2019-03-08T17:39:01.222Z,56.50
2019-03-08T17:41:34.382Z,57.70
2019-03-08T17:44:06.621Z,57.30
2019-03-08T17:46:42.867Z,57.40
2019-03-08T17:49:16.143Z,57.50
2019-03-08T17:51:46.365Z,58.50
2019-03-08T17:54:28.992Z,58.00
2019-03-08T17:57:14.303Z,58.00
2019-03-08T17:59:44.504Z,58.30
2019-03-08T18:02:17.539Z,58.30
2019-03-08T18:04:50.378Z,59.30
2019-03-08T18:07:38.689Z,59.10
2019-03-08T18:10:13.688Z,59.00
2019-03-08T18:12:49.948Z,59.40
2019-03-08T18:15:36.742Z,59.40
2019-03-08T18:18:07.032Z,59.40
2019-03-08T18:20:52.516Z,59.80
2019-03-08T18:23:22.737Z,59.50
2019-03-08T18:26:11.151Z,58.90
2019-03-08T18:28:56.491Z,59.40
2019-03-08T18:31:29.398Z,59.30
2019-03-08T18:34:11.452Z,60.20
2019-03-08T18:36:50.640Z,60.60
2019-03-08T18:39:35.972Z,61.80
2019-03-08T18:42:22.872Z,62.20
2019-03-08T18:44:56.416Z,62.60
2019-03-08T18:47:35.388Z,62.80
2019-03-08T18:50:08.812Z,63.10
2019-03-08T18:52:41.760Z,63.50
2019-03-08T18:55:27.122Z,63.80
2019-03-08T18:58:00.272Z,63.60
2019-03-08T19:00:30.459Z,63.60
2019-03-08T19:03:01.027Z,63.80
2019-03-08T19:05:34.298Z,63.10
2019-03-08T19:08:20.831Z,62.80
2019-03-08T19:10:56.742Z,62.20
2019-03-08T19:13:41.721Z,61.70
2019-03-08T19:16:12.012Z,61.50
2019-03-08T19:18:45.148Z,61.50
2019-03-08T19:21:18.049Z,61.30
2019-03-08T19:23:54.848Z,61.10
2019-03-08T19:26:34.181Z,60.50
2019-03-08T19:29:20.911Z,60.10
2019-03-08T19:31:54.136Z,60.40
2019-03-08T19:34:33.345Z,60.20
2019-03-08T19:37:03.532Z,60.00
2019-03-08T19:39:33.809Z,60.00
2019-03-08T19:42:22.165Z,60.30
2019-03-08T19:44:55.928Z,60.40
2019-03-08T19:47:41.338Z,60.30
2019-03-08T19:50:24.451Z,60.60
2019-03-08T19:53:00.634Z,60.70
2019-03-08T19:55:40.163Z,61.10
2019-03-08T19:58:16.116Z,61.10
2019-03-08T20:00:55.346Z,61.00
2019-03-08T20:03:25.618Z,60.70
2019-03-08T20:06:05.320Z,60.30
2019-03-08T20:08:35.650Z,60.60
2019-03-08T20:11:05.899Z,60.80
2019-03-08T20:13:36.092Z,60.90
2019-03-08T20:16:09.826Z,61.10
2019-03-08T20:18:42.936Z,60.90
2019-03-08T20:21:29.719Z,60.90
2019-03-08T20:23:59.919Z,61.00
2019-03-08T20:26:30.096Z,61.20
2019-03-08T20:29:06.084Z,61.50
2019-03-08T20:31:36.261Z,61.90
2019-03-08T20:34:06.631Z,61.70
2019-03-08T20:36:52.416Z,61.90
2019-03-08T20:39:25.072Z,64.40
2019-03-08T20:42:10.564Z,62.80
2019-03-08T20:44:43.755Z,63.50
2019-03-08T20:47:13.992Z,64.00
2019-03-08T20:49:42.545Z,64.20
2019-03-08T20:52:11.165Z,64.10
2019-03-08T20:54:39.736Z,64.40
2019-03-08T20:57:08.291Z,64.80
2019-03-08T20:59:36.874Z,64.60
2019-03-08T21:02:05.804Z,65.50
2019-03-08T21:04:34.379Z,66.50
2019-03-08T21:07:03.446Z,65.60
2019-03-08T21:09:32.039Z,65.20
2019-03-08T21:12:00.635Z,65.40
2019-03-08T21:14:29.350Z,65.30
2019-03-08T21:16:57.892Z,65.60
2019-03-08T21:19:28.507Z,65.10
2019-03-08T21:21:57.005Z,65.40
2019-03-08T21:24:25.771Z,65.20
2019-03-08T21:26:54.355Z,65.20
2019-03-08T21:29:23.103Z,64.80
2019-03-08T21:31:51.645Z,65.20
2019-03-08T21:34:20.711Z,64.90
2019-03-08T21:36:49.347Z,66.60
2019-03-08T21:39:18.172Z,65.40
2019-03-08T21:41:46.904Z,65.20
2019-03-08T21:44:15.412Z,66.90
2019-03-08T21:46:43.970Z,65.90
2019-03-08T21:49:12.541Z,66.00
2019-03-08T21:51:41.093Z,65.90
2019-03-08T21:54:09.768Z,66.00
2019-03-08T21:56:38.675Z,66.90
2019-03-08T21:59:07.348Z,66.80
2019-03-08T22:01:35.996Z,66.10
2019-03-08T22:04:06.364Z,66.00
2019-03-08T22:06:35.028Z,66.30
2019-03-08T22:09:09.366Z,66.70
2019-03-08T22:11:39.683Z,66.30
2019-03-08T22:14:08.454Z,66.40
2019-03-08T22:16:37.120Z,67.30
2019-03-08T22:19:05.741Z,66.00
2019-03-08T22:21:34.335Z,66.30
2019-03-08T22:24:02.984Z,67.10
2019-03-08T22:26:33.266Z,66.50
2019-03-08T22:29:01.853Z,67.00
2019-03-08T22:31:30.403Z,66.70
2019-03-08T22:33:58.980Z,67.00
2019-03-08T22:36:27.861Z,66.90
2019-03-08T22:38:56.457Z,68.10
2019-03-08T22:41:25.076Z,67.30
2019-03-08T22:43:53.632Z,68.00
2019-03-08T22:46:22.217Z,67.60
2019-03-08T22:48:50.765Z,68.20
2019-03-08T22:51:19.738Z,68.50
2019-03-08T22:53:48.283Z,68.60
2019-03-08T22:56:16.853Z,68.60
2019-03-08T22:58:45.409Z,69.20
2019-03-08T23:01:17.967Z,69.60
2019-03-08T23:03:46.588Z,69.80
2019-03-08T23:06:15.455Z,69.80
2019-03-08T23:08:44.007Z,70.50
2019-03-08T23:11:12.617Z,71.30
2019-03-08T23:13:41.181Z,71.70
2019-03-08T23:16:09.820Z,71.90
2019-03-08T23:18:38.444Z,71.70
2019-03-08T23:21:07.020Z,72.10
2019-03-08T23:23:35.608Z,71.90
2019-03-08T23:26:04.428Z,72.10
2019-03-08T23:28:40.607Z,71.80
2019-03-08T23:31:22.777Z,71.60
2019-03-08T23:33:51.341Z,73.00
2019-03-08T23:36:19.904Z,72.10
2019-03-08T23:38:48.454Z,72.30
2019-03-08T23:41:17.023Z,72.30
2019-03-08T23:43:45.575Z,72.30
2019-03-08T23:46:14.199Z,72.30
2019-03-08T23:48:42.754Z,72.60
2019-03-08T23:51:11.322Z,72.60
2019-03-08T23:53:40.201Z,72.80
2019-03-08T23:56:08.777Z,73.80
2019-03-08T23:58:37.700Z,74.20
